Time;durP1;ratioP1;P1;durP2;ratioP2;P2;SDS_P1;SDS_P2;PMS_P1;PMS_P2;Temp;Humidity;BMP_temperature;BMP_pressure;BME280_temperature;BME280_humidity;BME280_pressure;Samples;Min_cycle;Max_cycle;Signal;HPM_P1;HPM_P2
2022/02/19 00:00:09;;;;;;;1.20;1.00;;;8.20;98.00;;;;;;5043373;28;20479;-68
2022/02/19 00:02:36;;;;;;;2.03;1.73;;;8.10;98.00;;;;;;5040004;28;21006;-68
2022/02/19 00:05:04;;;;;;;1.20;1.00;;;8.20;98.00;;;;;;5038080;28;21024;-68
2022/02/19 00:07:32;;;;;;;1.43;1.33;;;8.10;98.00;;;;;;5043646;28;20466;-68
2022/02/19 00:09:59;;;;;;;1.20;1.00;;;8.10;98.00;;;;;;5036098;28;20494;-68
2022/02/19 00:12:27;;;;;;;1.20;1.03;;;8.20;98.00;;;;;;5044130;28;20801;-68
2022/02/19 00:14:54;;;;;;;1.20;1.10;;;8.10;98.00;;;;;;5040229;28;20498;-68
2022/02/19 00:17:21;;;;;;;1.20;0.90;;;8.10;98.00;;;;;;5032372;28;21034;-68
2022/02/19 00:19:49;;;;;;;1.20;1.00;;;8.00;98.00;;;;;;5040646;28;20539;-68
2022/02/19 00:22:16;;;;;;;1.20;1.00;;;8.00;98.00;;;;;;5033558;28;20493;-68
2022/02/19 00:24:44;;;;;;;1.20;1.10;;;8.10;98.00;;;;;;5040310;28;20457;-68
2022/02/19 00:27:11;;;;;;;1.20;1.07;;;8.10;98.00;;;;;;5043856;28;20458;-68
2022/02/19 00:29:40;;;;;;;1.20;1.10;;;8.00;98.00;;;;;;5038372;28;20461;-68
2022/02/19 00:32:08;;;;;;;1.20;0.90;;;8.10;98.00;;;;;;5032375;28;20500;-68
2022/02/19 00:34:35;;;;;;;1.37;1.30;;;8.10;98.00;;;;;;5034569;28;20513;-68
2022/02/19 00:37:04;;;;;;;1.20;1.00;;;8.10;98.00;;;;;;5038575;28;20531;-68
2022/02/19 00:39:31;;;;;;;1.20;1.00;;;8.20;98.00;;;;;;5043548;28;20495;-69
2022/02/19 00:42:02;;;;;;;1.20;1.00;;;8.10;98.00;;;;;;5038775;28;21038;-68
2022/02/19 00:44:30;;;;;;;2.07;1.43;;;8.10;98.00;;;;;;5039417;28;20463;-68
2022/02/19 00:46:58;;;;;;;1.20;1.00;;;8.00;98.00;;;;;;5039845;28;20816;-68
2022/02/19 00:49:25;;;;;;;1.20;0.90;;;8.00;98.00;;;;;;5036032;28;20482;-68
2022/02/19 00:51:52;;;;;;;1.20;1.00;;;8.00;98.00;;;;;;5043237;28;20872;-68
2022/02/19 00:54:19;;;;;;;1.20;1.00;;;7.90;98.00;;;;;;5038850;28;20549;-68
2022/02/19 00:56:46;;;;;;;1.20;1.00;;;7.90;98.00;;;;;;5037583;28;20500;-69
2022/02/19 00:59:13;;;;;;;1.20;0.90;;;7.90;98.00;;;;;;5035475;28;21016;-68
2022/02/19 01:01:40;;;;;;;1.20;1.00;;;7.80;98.00;;;;;;5034668;28;20490;-68
2022/02/19 01:04:09;;;;;;;1.20;1.00;;;7.80;98.00;;;;;;5033918;28;20493;-68
2022/02/19 01:06:38;;;;;;;1.20;1.00;;;7.90;98.00;;;;;;5039900;28;20495;-68
2022/02/19 01:09:06;;;;;;;1.20;1.00;;;7.90;98.00;;;;;;5043519;28;20938;-68
2022/02/19 01:11:39;;;;;;;1.20;1.00;;;7.90;98.00;;;;;;5037672;28;20542;-68
2022/02/19 01:14:06;;;;;;;1.20;1.00;;;7.90;98.00;;;;;;5029194;28;20922;-68
2022/02/19 01:16:33;;;;;;;1.20;1.00;;;7.90;98.00;;;;;;5033284;28;21043;-68
2022/02/19 01:19:02;;;;;;;1.20;1.00;;;7.90;98.00;;;;;;5040058;28;20503;-68
2022/02/19 01:21:31;;;;;;;1.20;1.00;;;7.90;98.00;;;;;;5042902;28;20493;-68
2022/02/19 01:23:58;;;;;;;1.20;1.00;;;8.00;98.00;;;;;;5040904;28;20461;-68
2022/02/19 01:26:25;;;;;;;1.20;1.00;;;8.00;98.00;;;;;;5039776;28;20596;-68
2022/02/19 01:28:52;;;;;;;1.20;1.00;;;7.90;98.00;;;;;;5036587;28;20459;-68
2022/02/19 01:31:20;;;;;;;1.20;0.90;;;7.90;98.00;;;;;;5028992;28;20460;-68
2022/02/19 01:33:47;;;;;;;1.20;1.00;;;8.00;97.30;;;;;;5041091;28;20470;-68
2022/02/19 01:36:14;;;;;;;1.20;1.00;;;7.90;97.00;;;;;;5038560;28;20617;-68
2022/02/19 01:38:42;;;;;;;1.20;1.00;;;8.00;96.10;;;;;;5044597;28;20545;-68
2022/02/19 01:41:10;;;;;;;1.80;1.30;;;8.00;96.10;;;;;;5041520;28;20870;-68
2022/02/19 01:43:37;;;;;;;3.33;1.70;;;8.00;95.80;;;;;;5034368;28;20499;-68
2022/02/19 01:46:04;;;;;;;1.20;1.00;;;8.00;95.20;;;;;;5018782;28;21053;-68
2022/02/19 01:48:31;;;;;;;1.20;1.00;;;8.10;94.70;;;;;;5045150;28;20466;-68
2022/02/19 01:50:58;;;;;;;1.20;1.00;;;8.10;95.50;;;;;;5043539;28;21021;-68
2022/02/19 01:53:26;;;;;;;1.20;1.00;;;8.10;94.20;;;;;;5036353;28;20988;-68
2022/02/19 01:55:57;;;;;;;1.40;1.40;;;8.10;94.40;;;;;;5033529;28;20521;-68
2022/02/19 01:58:25;;;;;;;1.20;1.00;;;8.10;94.30;;;;;;5031832;28;21758;-68
2022/02/19 02:00:52;;;;;;;1.20;1.00;;;8.10;93.70;;;;;;5039256;28;20553;-68
2022/02/19 02:03:19;;;;;;;1.20;0.90;;;8.10;92.80;;;;;;5018225;28;20487;-68
2022/02/19 02:05:47;;;;;;;1.20;1.00;;;8.10;93.00;;;;;;5043452;28;20490;-68
2022/02/19 02:08:15;;;;;;;1.20;1.00;;;8.00;93.30;;;;;;5043799;28;20461;-68
2022/02/19 02:10:43;;;;;;;1.20;1.00;;;8.00;93.20;;;;;;5038948;28;20562;-68
2022/02/19 02:13:12;;;;;;;1.20;1.00;;;8.00;93.00;;;;;;5033233;28;20786;-68
2022/02/19 02:15:39;;;;;;;1.20;1.00;;;8.00;92.80;;;;;;5052612;28;20519;-68
2022/02/19 02:18:07;;;;;;;1.20;1.00;;;8.00;92.70;;;;;;5042767;28;20530;-68
2022/02/19 02:20:34;;;;;;;1.20;1.00;;;8.00;91.80;;;;;;5044525;28;20515;-67
2022/02/19 02:23:02;;;;;;;1.20;1.00;;;8.00;91.50;;;;;;5041026;28;20454;-68
2022/02/19 02:25:32;;;;;;;1.20;1.00;;;8.00;91.80;;;;;;5039229;28;20494;-68
2022/02/19 02:27:59;;;;;;;1.20;1.00;;;8.00;91.10;;;;;;5037719;28;20536;-68
2022/02/19 02:30:28;;;;;;;1.20;1.00;;;8.00;91.70;;;;;;5045520;28;20518;-68
2022/02/19 02:32:55;;;;;;;1.20;1.10;;;8.00;91.20;;;;;;5039186;28;20489;-68
2022/02/19 02:35:22;;;;;;;1.20;1.00;;;7.90;91.00;;;;;;5039079;28;20889;-68
2022/02/19 02:37:49;;;;;;;1.20;1.00;;;7.90;90.70;;;;;;5036994;28;20533;-68
2022/02/19 02:40:17;;;;;;;1.20;1.00;;;7.90;91.20;;;;;;5042180;28;20847;-68
2022/02/19 02:42:44;;;;;;;5.60;1.30;;;7.90;91.40;;;;;;5037646;28;21021;-68
2022/02/19 02:45:11;;;;;;;1.47;1.10;;;7.90;91.80;;;;;;5044820;28;20486;-68
2022/02/19 02:47:43;;;;;;;1.20;1.00;;;7.80;91.20;;;;;;5033854;28;20488;-68
2022/02/19 02:50:10;;;;;;;1.20;1.00;;;7.80;90.60;;;;;;5043217;28;20536;-68
2022/02/19 02:52:39;;;;;;;1.30;1.13;;;7.80;91.90;;;;;;5037824;28;20456;-68
2022/02/19 02:55:08;;;;;;;1.20;1.00;;;7.70;91.90;;;;;;5031848;28;20488;-68
2022/02/19 02:57:38;;;;;;;1.20;0.90;;;7.70;92.20;;;;;;5045156;28;20996;-68
2022/02/19 03:00:09;;;;;;;1.20;1.00;;;7.70;91.40;;;;;;5038723;28;20553;-67
2022/02/19 03:02:37;;;;;;;1.20;1.00;;;7.70;91.50;;;;;;5036193;28;20661;-68
2022/02/19 03:05:06;;;;;;;1.20;1.00;;;7.60;92.00;;;;;;5043105;28;20453;-68
2022/02/19 03:07:33;;;;;;;1.20;1.00;;;7.70;91.70;;;;;;5039864;28;20465;-68
2022/02/19 03:10:00;;;;;;;1.20;0.90;;;7.60;92.00;;;;;;5043877;28;21267;-67
2022/02/19 03:12:28;;;;;;;1.20;0.93;;;7.60;92.10;;;;;;5041576;28;20505;-67
2022/02/19 03:14:57;;;;;;;1.20;1.00;;;7.60;91.70;;;;;;5045624;28;20464;-68
2022/02/19 03:17:25;;;;;;;1.20;1.00;;;7.70;91.30;;;;;;5030475;28;20574;-68
2022/02/19 03:19:52;;;;;;;1.20;1.00;;;7.70;92.30;;;;;;5038281;28;20456;-68
2022/02/19 03:22:19;;;;;;;1.20;1.03;;;7.60;92.60;;;;;;5040774;28;20552;-68
2022/02/19 03:24:46;;;;;;;1.20;1.10;;;7.60;92.70;;;;;;5037059;28;20488;-68
2022/02/19 03:27:13;;;;;;;1.30;1.20;;;7.60;91.70;;;;;;5042600;28;20494;-67
2022/02/19 03:29:40;;;;;;;1.20;1.00;;;7.60;92.80;;;;;;5043510;28;20502;-68
2022/02/19 03:32:09;;;;;;;2.23;1.10;;;7.50;93.30;;;;;;5043014;28;20541;-68
2022/02/19 03:34:36;;;;;;;1.20;1.00;;;7.50;92.60;;;;;;5037139;28;20490;-68
2022/02/19 03:37:03;;;;;;;1.30;1.20;;;7.50;92.80;;;;;;5031519;28;21106;-68
2022/02/19 03:39:31;;;;;;;1.20;1.00;;;7.50;93.00;;;;;;5044857;28;20916;-68
2022/02/19 03:42:01;;;;;;;1.20;1.00;;;7.40;93.70;;;;;;5041396;28;20944;-68
2022/02/19 03:44:28;;;;;;;1.40;1.00;;;7.40;93.10;;;;;;5044778;28;20498;-68
2022/02/19 03:46:55;;;;;;;1.20;1.10;;;7.40;92.60;;;;;;5037706;28;20492;-68
2022/02/19 03:49:23;;;;;;;1.20;1.10;;;7.40;92.40;;;;;;5038120;28;20529;-67
2022/02/19 03:51:50;;;;;;;1.83;1.20;;;7.40;92.50;;;;;;5032000;28;20543;-68
2022/02/19 03:54:17;;;;;;;1.20;0.90;;;7.30;93.60;;;;;;5035485;28;20542;-68
2022/02/19 03:56:44;;;;;;;2.07;1.37;;;7.30;93.00;;;;;;5040155;28;20555;-67
2022/02/19 03:59:14;;;;;;;1.20;0.90;;;7.30;92.30;;;;;;5037569;28;20544;-67
2022/02/19 04:01:41;;;;;;;1.40;1.30;;;7.30;92.00;;;;;;5037965;28;20512;-67
2022/02/19 04:04:08;;;;;;;1.20;1.00;;;7.30;91.40;;;;;;5039319;28;20550;-68
2022/02/19 04:06:36;;;;;;;1.20;1.00;;;7.30;91.60;;;;;;5034706;28;20460;-68
2022/02/19 04:09:04;;;;;;;1.40;1.40;;;7.30;91.90;;;;;;5040448;28;20486;-68
2022/02/19 04:11:32;;;;;;;1.20;1.00;;;7.30;92.00;;;;;;5040617;28;20492;-68
2022/02/19 04:13:59;;;;;;;1.20;1.00;;;7.30;91.60;;;;;;5026617;28;20490;-67
2022/02/19 04:16:26;;;;;;;1.20;1.00;;;7.30;92.30;;;;;;5039686;28;20471;-68
2022/02/19 04:18:53;;;;;;;1.20;0.97;;;7.20;92.80;;;;;;5040418;28;20563;-67
2022/02/19 04:21:19;;;;;;;1.20;0.90;;;7.20;92.10;;;;;;5036831;28;20521;-68
2022/02/19 04:23:50;;;;;;;6.93;1.67;;;7.20;93.10;;;;;;5035999;28;20931;-67
2022/02/19 04:26:17;;;;;;;1.20;1.00;;;7.10;93.30;;;;;;5041988;28;20448;-67
2022/02/19 04:28:44;;;;;;;1.20;1.00;;;7.00;93.30;;;;;;5039168;28;20460;-68
2022/02/19 04:31:11;;;;;;;1.20;1.10;;;7.00;93.70;;;;;;5043023;28;20491;-67
2022/02/19 04:33:38;;;;;;;1.20;1.00;;;7.00;94.70;;;;;;5043862;28;20536;-68
2022/02/19 04:36:06;;;;;;;1.40;1.40;;;7.00;93.20;;;;;;5027552;28;20460;-67
2022/02/19 04:38:33;;;;;;;1.20;1.00;;;7.00;93.50;;;;;;5043368;28;20586;-67
2022/02/19 04:41:01;;;;;;;1.20;1.00;;;7.00;93.10;;;;;;5037272;28;21015;-67
2022/02/19 04:43:28;;;;;;;1.20;1.00;;;7.00;91.90;;;;;;5041218;28;20479;-67
2022/02/19 04:45:55;;;;;;;1.20;1.00;;;6.90;90.60;;;;;;5037246;28;20521;-67
2022/02/19 04:48:22;;;;;;;1.20;1.00;;;6.80;91.30;;;;;;5040037;28;20458;-67
2022/02/19 04:50:49;;;;;;;1.20;1.00;;;6.80;90.70;;;;;;5039550;28;20497;-67
2022/02/19 04:53:16;;;;;;;1.20;1.00;;;6.80;92.00;;;;;;5040239;28;20493;-67
2022/02/19 04:55:44;;;;;;;1.20;1.00;;;6.80;91.40;;;;;;5040414;28;20519;-67
2022/02/19 04:58:12;;;;;;;1.30;1.00;;;6.70;92.30;;;;;;5037307;28;20531;-67
2022/02/19 05:00:39;;;;;;;1.20;1.00;;;6.60;91.70;;;;;;5034879;28;20520;-67
2022/02/19 05:03:07;;;;;;;1.20;0.90;;;6.50;91.90;;;;;;5036701;28;20455;-67
2022/02/19 05:05:34;;;;;;;1.20;1.00;;;6.50;91.90;;;;;;5032582;28;20955;-68
2022/02/19 05:08:01;;;;;;;1.20;1.00;;;6.50;92.60;;;;;;5040407;28;20495;-67
2022/02/19 05:10:27;;;;;;;1.20;1.00;;;6.50;92.30;;;;;;5040908;28;20466;-67
2022/02/19 05:12:54;;;;;;;1.20;1.00;;;6.50;92.70;;;;;;5038596;28;20547;-67
2022/02/19 05:15:23;;;;;;;1.20;1.00;;;6.50;92.50;;;;;;5030895;28;20493;-67
2022/02/19 05:17:53;;;;;;;1.20;1.00;;;6.50;92.30;;;;;;5035396;28;20916;-67
2022/02/19 05:20:21;;;;;;;1.20;1.00;;;6.40;93.30;;;;;;5031711;28;20464;-67
2022/02/19 05:22:48;;;;;;;1.20;1.00;;;6.30;93.50;;;;;;5043170;28;20446;-67
2022/02/19 05:25:15;;;;;;;1.20;1.00;;;6.30;93.40;;;;;;5041758;28;20520;-67
2022/02/19 05:27:42;;;;;;;1.20;1.00;;;6.30;93.40;;;;;;5035360;28;20980;-68
2022/02/19 05:30:11;;;;;;;1.20;1.00;;;6.30;93.90;;;;;;5036295;28;20963;-67
2022/02/19 05:32:39;;;;;;;1.20;1.00;;;6.30;93.00;;;;;;5042917;28;20485;-67
2022/02/19 05:35:07;;;;;;;4.43;1.20;;;6.30;93.10;;;;;;5041221;28;20497;-67
2022/02/19 05:37:34;;;;;;;1.20;1.00;;;6.30;93.20;;;;;;5038770;28;20528;-67
2022/02/19 05:40:02;;;;;;;1.20;1.00;;;6.30;93.50;;;;;;5046020;28;20458;-68
2022/02/19 05:42:29;;;;;;;1.20;1.00;;;6.30;93.40;;;;;;5041129;28;20529;-67
2022/02/19 05:44:56;;;;;;;1.20;1.00;;;6.20;94.50;;;;;;5032477;28;20486;-67
2022/02/19 05:47:23;;;;;;;1.20;1.00;;;6.10;93.80;;;;;;5022861;28;20507;-67
2022/02/19 05:49:51;;;;;;;1.20;1.00;;;6.20;94.70;;;;;;5044914;28;20488;-68
2022/02/19 05:52:19;;;;;;;1.20;1.00;;;6.10;94.00;;;;;;5045261;28;20458;-67
2022/02/19 05:54:46;;;;;;;1.20;0.97;;;6.10;94.50;;;;;;5027140;28;20459;-67
2022/02/19 05:57:14;;;;;;;1.20;1.00;;;6.10;94.10;;;;;;5044577;28;20501;-68
2022/02/19 05:59:41;;;;;;;1.20;1.00;;;6.10;94.70;;;;;;5034538;28;20461;-67
2022/02/19 06:02:08;;;;;;;1.20;1.00;;;6.00;94.60;;;;;;5043170;28;21068;-67
2022/02/19 06:04:35;;;;;;;1.20;1.00;;;6.10;95.60;;;;;;5046117;28;20858;-67
2022/02/19 06:07:03;;;;;;;1.20;1.00;;;6.10;94.70;;;;;;5041403;28;20550;-67
2022/02/19 06:09:30;;;;;;;1.20;1.00;;;6.10;95.90;;;;;;5041016;28;20520;-67
2022/02/19 06:11:57;;;;;;;1.20;1.00;;;6.10;95.80;;;;;;5038793;28;20966;-67
2022/02/19 06:14:25;;;;;;;1.20;1.00;;;6.10;96.00;;;;;;5031482;28;20481;-67
2022/02/19 06:16:52;;;;;;;1.30;1.30;;;6.00;95.90;;;;;;5052547;28;20459;-67
2022/02/19 06:19:19;;;;;;;1.20;1.03;;;5.90;96.10;;;;;;5040823;28;20582;-68
2022/02/19 06:21:46;;;;;;;1.20;1.00;;;5.90;96.30;;;;;;5039740;28;20525;-68
2022/02/19 06:24:14;;;;;;;1.20;1.00;;;5.90;95.70;;;;;;5043330;28;20538;-68
2022/02/19 06:26:43;;;;;;;1.20;1.00;;;5.90;96.40;;;;;;5037353;28;20490;-67
2022/02/19 06:29:10;;;;;;;1.40;1.30;;;5.90;95.70;;;;;;5037334;28;20957;-67
2022/02/19 06:31:37;;;;;;;1.20;1.03;;;5.90;96.00;;;;;;5046010;28;20490;-67
2022/02/19 06:34:04;;;;;;;1.20;1.00;;;5.90;95.90;;;;;;5042365;28;20486;-68
2022/02/19 06:36:31;;;;;;;1.20;1.00;;;5.90;96.20;;;;;;5038863;28;20514;-68
2022/02/19 06:38:58;;;;;;;1.20;1.00;;;5.80;95.90;;;;;;5033570;28;20530;-67
2022/02/19 06:41:27;;;;;;;1.20;1.03;;;5.90;95.90;;;;;;5038394;28;20631;-68
2022/02/19 06:43:54;;;;;;;1.20;1.00;;;5.90;96.30;;;;;;5038641;28;20490;-68
2022/02/19 06:46:21;;;;;;;1.20;1.00;;;5.80;96.70;;;;;;5042072;28;20546;-68
2022/02/19 06:48:48;;;;;;;1.20;1.10;;;5.80;96.50;;;;;;5042089;28;20463;-67
2022/02/19 06:51:15;;;;;;;1.20;1.00;;;5.80;97.20;;;;;;5041555;28;20475;-68
2022/02/19 06:53:42;;;;;;;1.20;1.00;;;5.70;96.80;;;;;;5036648;28;20489;-68
2022/02/19 06:56:11;;;;;;;1.20;1.00;;;5.70;96.80;;;;;;5030182;28;20547;-68
2022/02/19 06:58:40;;;;;;;1.20;0.90;;;5.70;97.90;;;;;;5042549;28;20575;-68
2022/02/19 07:01:07;;;;;;;1.20;1.00;;;5.60;98.00;;;;;;5040114;28;20871;-67
2022/02/19 07:03:34;;;;;;;1.20;1.00;;;5.60;97.20;;;;;;5047434;28;20840;-67
2022/02/19 07:06:01;;;;;;;4.20;2.60;;;5.70;97.50;;;;;;5042854;28;20495;-68
2022/02/19 07:08:28;;;;;;;1.20;1.00;;;5.80;97.20;;;;;;5042016;28;20551;-67
2022/02/19 07:10:55;;;;;;;1.20;0.90;;;5.80;96.90;;;;;;5044852;28;20502;-68
2022/02/19 07:13:22;;;;;;;1.20;0.90;;;5.80;96.60;;;;;;5041695;28;20491;-68
2022/02/19 07:15:50;;;;;;;1.20;1.00;;;5.80;97.00;;;;;;5041033;28;20496;-68
2022/02/19 07:18:17;;;;;;;1.20;1.00;;;5.70;96.70;;;;;;5044339;28;20950;-68
2022/02/19 07:20:44;;;;;;;1.20;1.00;;;5.70;96.70;;;;;;5036162;28;21030;-68
2022/02/19 07:23:11;;;;;;;1.20;1.00;;;5.80;97.20;;;;;;5039533;28;20535;-68
2022/02/19 07:25:40;;;;;;;1.20;1.00;;;5.70;97.20;;;;;;5034259;28;20957;-68
2022/02/19 07:28:07;;;;;;;1.20;1.00;;;5.80;97.10;;;;;;5041005;28;20582;-68
2022/02/19 07:30:38;;;;;;;1.20;1.00;;;5.80;97.30;;;;;;5042573;28;20809;-68
2022/02/19 07:33:07;;;;;;;1.20;1.00;;;5.80;97.50;;;;;;5041138;28;20806;-68
2022/02/19 07:35:39;;;;;;;1.20;1.00;;;5.80;97.50;;;;;;5035002;28;20518;-68
2022/02/19 07:38:06;;;;;;;1.20;1.00;;;5.80;98.00;;;;;;5029689;28;20824;-68
2022/02/19 07:40:33;;;;;;;1.20;0.90;;;5.80;97.60;;;;;;5044754;28;20458;-68
2022/02/19 07:43:00;;;;;;;1.70;1.13;;;5.90;96.80;;;;;;5039535;28;20493;-67
2022/02/19 07:45:27;;;;;;;1.30;1.20;;;6.00;97.50;;;;;;5043947;28;20944;-67
2022/02/19 07:47:55;;;;;;;1.20;1.00;;;6.00;97.00;;;;;;5037761;28;20499;-67
2022/02/19 07:58:36;;;;;;;1.20;1.00;;;6.10;97.70;;;;;;5039999;28;20492;-68
2022/02/19 08:01:05;;;;;;;1.20;1.00;;;6.20;96.30;;;;;;5040668;28;20553;-68
2022/02/19 08:03:33;;;;;;;1.20;1.00;;;6.20;96.90;;;;;;5034297;28;20458;-68
2022/02/19 08:06:04;;;;;;;1.20;0.93;;;6.20;97.40;;;;;;5029377;28;20890;-69
2022/02/19 08:08:33;;;;;;;1.20;1.00;;;6.20;96.80;;;;;;5042938;28;20785;-68
2022/02/19 08:11:01;;;;;;;1.20;1.00;;;6.20;96.40;;;;;;5039104;28;20556;-68
2022/02/19 08:13:28;;;;;;;1.20;1.00;;;6.30;97.20;;;;;;5043151;28;20456;-68
2022/02/19 08:15:55;;;;;;;1.50;1.40;;;6.30;97.40;;;;;;5037207;28;21018;-68
2022/02/19 08:18:23;;;;;;;1.20;1.00;;;6.20;97.50;;;;;;5036848;28;20583;-68
2022/02/19 08:20:52;;;;;;;1.20;0.90;;;6.30;97.70;;;;;;5033492;28;20505;-68
2022/02/19 08:23:22;;;;;;;1.20;1.00;;;6.30;97.20;;;;;;5032995;28;20496;-69
2022/02/19 08:25:50;;;;;;;1.20;1.00;;;6.40;97.00;;;;;;5044399;28;20464;-67
2022/02/19 08:28:17;;;;;;;1.20;1.00;;;6.40;96.70;;;;;;5035806;28;20549;-68
2022/02/19 08:30:46;;;;;;;1.20;1.00;;;6.40;97.30;;;;;;5035441;28;20457;-68
2022/02/19 08:33:14;;;;;;;1.40;1.20;;;6.60;97.80;;;;;;5038656;28;20470;-68
2022/02/19 08:35:44;;;;;;;1.20;1.00;;;6.70;97.60;;;;;;5035180;28;21038;-67
2022/02/19 08:38:11;;;;;;;1.20;0.97;;;6.60;97.70;;;;;;5033618;28;20549;-66
2022/02/19 08:40:43;;;;;;;1.20;0.97;;;6.50;97.00;;;;;;5035736;28;20469;-67
2022/02/19 08:43:10;;;;;;;1.20;1.00;;;6.50;98.00;;;;;;5029825;28;20486;-67
2022/02/19 08:45:42;;;;;;;1.20;0.90;;;6.60;98.00;;;;;;5039289;28;20491;-66
2022/02/19 08:48:11;;;;;;;1.20;1.00;;;6.60;97.30;;;;;;5039199;28;20497;-66
2022/02/19 08:50:40;;;;;;;1.20;1.00;;;6.70;97.00;;;;;;5044677;28;20451;-66
2022/02/19 08:53:07;;;;;;;1.20;1.00;;;6.80;96.00;;;;;;5029326;28;20463;-68
2022/02/19 08:55:34;;;;;;;1.20;1.00;;;6.70;96.20;;;;;;5035457;28;20482;-68
2022/02/19 08:58:03;;;;;;;1.20;1.00;;;6.70;95.60;;;;;;5039212;28;21038;-68
2022/02/19 09:00:30;;;;;;;1.20;1.00;;;6.80;96.00;;;;;;5036029;28;20576;-67
2022/02/19 09:02:57;;;;;;;1.20;1.00;;;6.80;95.50;;;;;;5035981;28;20505;-66
2022/02/19 09:05:26;;;;;;;1.20;1.00;;;6.90;95.00;;;;;;5041138;28;20475;-66
2022/02/19 09:07:54;;;;;;;1.20;1.00;;;7.10;94.90;;;;;;5038972;28;20469;-66
2022/02/19 09:10:20;;;;;;;1.20;1.00;;;7.30;93.70;;;;;;5031228;28;20511;-66
2022/02/19 09:12:49;;;;;;;1.20;1.00;;;7.40;93.70;;;;;;5028928;28;20515;-66
2022/02/19 09:15:20;;;;;;;1.20;1.00;;;7.40;93.10;;;;;;5037666;28;20477;-66
2022/02/19 09:17:48;;;;;;;1.20;1.00;;;7.40;92.80;;;;;;5035083;28;20489;-66
2022/02/19 09:20:16;;;;;;;1.20;1.00;;;7.40;93.70;;;;;;5042016;28;20527;-66
2022/02/19 09:22:44;;;;;;;1.20;1.00;;;7.50;94.20;;;;;;5040090;28;20472;-66
2022/02/19 09:25:12;;;;;;;1.20;1.20;;;7.60;92.80;;;;;;5040056;28;20544;-66
2022/02/19 09:27:40;;;;;;;1.20;1.00;;;7.70;93.40;;;;;;5034872;28;20467;-66
2022/02/19 09:30:09;;;;;;;1.20;1.00;;;7.80;93.60;;;;;;5028656;28;20490;-66
2022/02/19 09:32:38;;;;;;;2.60;2.37;;;8.00;94.10;;;;;;5041298;28;20508;-66
2022/02/19 09:35:06;;;;;;;1.20;1.00;;;8.10;90.90;;;;;;5038806;28;20516;-66
2022/02/19 09:37:34;;;;;;;1.20;1.00;;;8.00;91.40;;;;;;5049518;28;20495;-67
2022/02/19 09:40:01;;;;;;;1.20;1.00;;;8.00;91.30;;;;;;5037906;28;20615;-66
2022/02/19 09:42:28;;;;;;;1.20;1.00;;;8.10;91.00;;;;;;5035945;28;20995;-66
2022/02/19 09:44:56;;;;;;;1.20;1.00;;;8.10;92.10;;;;;;5032288;28;20540;-66
2022/02/19 09:47:26;;;;;;;1.20;1.00;;;8.10;89.90;;;;;;5039173;28;20458;-66
2022/02/19 09:49:54;;;;;;;1.20;1.00;;;8.00;89.20;;;;;;5043327;28;21018;-66
2022/02/19 09:52:23;;;;;;;1.20;1.00;;;8.10;89.60;;;;;;5024970;28;20616;-66
2022/02/19 09:54:51;;;;;;;1.20;1.00;;;8.10;90.30;;;;;;5039113;28;20818;-66
2022/02/19 09:57:18;;;;;;;1.20;1.00;;;8.10;88.90;;;;;;5038163;28;20520;-66
2022/02/19 09:59:46;;;;;;;1.20;1.00;;;8.20;88.20;;;;;;5034526;28;20889;-66
2022/02/19 10:02:13;;;;;;;1.20;1.00;;;8.20;88.60;;;;;;5041667;28;20463;-66
2022/02/19 10:04:44;;;;;;;1.20;1.00;;;8.30;89.50;;;;;;5040580;28;21001;-66
2022/02/19 10:07:17;;;;;;;1.20;0.90;;;8.50;89.90;;;;;;5034922;28;20978;-66
2022/02/19 10:09:46;;;;;;;1.20;1.10;;;8.60;89.40;;;;;;5030698;28;20518;-66
2022/02/19 10:12:15;;;;;;;1.20;1.00;;;8.50;87.90;;;;;;5029862;28;20467;-66
2022/02/19 10:14:43;;;;;;;1.20;1.10;;;8.50;88.30;;;;;;5044989;28;20490;-66
2022/02/19 10:17:17;;;;;;;1.20;1.00;;;8.40;87.70;;;;;;5038542;28;20505;-66
2022/02/19 10:19:55;;;;;;;1.20;1.00;;;8.30;86.30;;;;;;5038092;28;21323;-66
2022/02/19 10:22:25;;;;;;;1.40;1.20;;;8.20;86.00;;;;;;5033633;28;20513;-66
2022/02/19 10:24:55;;;;;;;1.20;1.00;;;7.80;86.80;;;;;;5041158;28;20487;-66
2022/02/19 10:27:23;;;;;;;1.20;1.00;;;7.80;86.30;;;;;;5035101;28;20497;-66
2022/02/19 10:29:55;;;;;;;1.20;1.00;;;7.90;87.10;;;;;;5042623;28;20493;-66
2022/02/19 10:32:24;;;;;;;1.20;0.97;;;7.90;88.00;;;;;;5036478;28;20538;-66
2022/02/19 10:35:02;;;;;;;3.50;1.13;;;8.10;88.10;;;;;;5043425;28;20521;-66
2022/02/19 10:37:31;;;;;;;1.20;1.00;;;8.40;88.90;;;;;;5020592;28;20460;-66
2022/02/19 10:39:59;;;;;;;1.20;1.00;;;8.40;86.90;;;;;;5039890;28;20908;-66
2022/02/19 10:42:34;;;;;;;3.63;2.27;;;8.50;87.30;;;;;;5045297;28;20480;-66
2022/02/19 10:45:08;;;;;;;1.20;1.00;;;8.60;87.40;;;;;;5041376;28;20548;-66
2022/02/19 10:47:37;;;;;;;1.20;1.00;;;8.70;87.10;;;;;;5043338;28;20459;-67
2022/02/19 10:50:10;;;;;;;1.20;1.00;;;8.70;85.80;;;;;;5048396;28;20518;-66
2022/02/19 10:52:40;;;;;;;1.20;1.00;;;8.70;86.00;;;;;;5041992;28;20447;-66
2022/02/19 10:55:10;;;;;;;1.20;1.00;;;8.80;87.00;;;;;;5036757;28;20465;-66
2022/02/19 10:57:42;;;;;;;1.20;1.00;;;8.70;85.70;;;;;;5041992;28;20467;-66
2022/02/19 11:00:14;;;;;;;1.30;1.20;;;8.70;85.00;;;;;;5045588;28;20495;-66
2022/02/19 11:02:42;;;;;;;1.20;1.00;;;8.70;85.40;;;;;;5035040;28;20494;-66
2022/02/19 11:05:11;;;;;;;1.20;1.00;;;8.70;84.80;;;;;;5035042;28;20490;-66
2022/02/19 11:07:40;;;;;;;1.20;1.00;;;8.50;85.90;;;;;;5036223;28;20495;-66
2022/02/19 11:10:10;;;;;;;1.20;0.90;;;8.70;85.90;;;;;;5041587;28;20490;-66
2022/02/19 11:12:37;;;;;;;1.37;1.33;;;8.80;84.10;;;;;;5045082;28;20455;-66
2022/02/19 11:15:06;;;;;;;1.20;1.00;;;9.10;85.60;;;;;;5042056;28;20498;-66
2022/02/19 11:17:35;;;;;;;1.40;1.13;;;9.40;85.80;;;;;;5041724;28;20464;-66
2022/02/19 11:20:04;;;;;;;1.20;1.00;;;9.70;85.00;;;;;;5039770;28;20494;-66
2022/02/19 11:22:33;;;;;;;1.20;1.00;;;10.10;84.00;;;;;;5038529;28;20464;-66
2022/02/19 11:25:03;;;;;;;1.20;0.90;;;10.30;82.70;;;;;;5045158;28;20506;-66
2022/02/19 11:27:33;;;;;;;1.20;1.00;;;10.30;82.40;;;;;;5045155;28;20872;-66
2022/02/19 11:30:03;;;;;;;5.93;1.30;;;10.30;83.10;;;;;;5038301;28;20563;-66
2022/02/19 11:32:31;;;;;;;1.20;1.00;;;10.30;81.60;;;;;;5041496;28;20484;-66
2022/02/19 11:34:58;;;;;;;1.20;1.00;;;10.40;82.40;;;;;;5046948;28;20461;-66
2022/02/19 11:37:25;;;;;;;1.20;1.00;;;10.30;82.00;;;;;;5040334;28;20459;-66
2022/02/19 11:40:05;;;;;;;1.20;1.00;;;10.40;82.00;;;;;;5041053;28;20573;-66
2022/02/19 11:42:37;;;;;;;1.20;1.00;;;10.10;81.30;;;;;;5034605;28;20472;-66
2022/02/19 11:45:27;;;;;;;1.20;1.10;;;9.80;81.80;;;;;;5042779;28;20948;-67
2022/02/19 11:48:15;;;;;;;1.20;1.00;;;9.70;82.90;;;;;;5039282;28;20514;-66
2022/02/19 11:51:09;;;;;;;1.20;1.00;;;9.50;83.20;;;;;;5026261;28;20562;-66
2022/02/19 11:53:36;;;;;;;1.20;1.00;;;9.30;82.50;;;;;;5043528;28;20541;-66
2022/02/19 11:56:10;;;;;;;1.57;1.10;;;9.20;83.60;;;;;;5043044;28;20470;-66
2022/02/19 11:58:50;;;;;;;1.20;1.00;;;9.20;82.80;;;;;;5040529;28;20453;-66
2022/02/19 12:01:17;;;;;;;1.20;1.00;;;9.90;81.70;;;;;;5037124;28;20489;-66
2022/02/19 12:03:44;;;;;;;1.40;1.17;;;10.10;81.40;;;;;;5034141;28;20513;-66
2022/02/19 12:06:18;;;;;;;1.20;0.93;;;10.00;80.80;;;;;;5037556;28;20488;-66
2022/02/19 12:09:05;;;;;;;1.20;1.00;;;10.40;81.50;;;;;;5035978;28;20552;-66
2022/02/19 12:11:53;;;;;;;1.20;1.00;;;11.10;78.80;;;;;;5016398;28;20457;-67
2022/02/19 12:14:53;;;;;;;1.20;1.00;;;11.80;78.80;;;;;;5019432;28;20486;-67
2022/02/19 12:17:22;;;;;;;1.20;1.00;;;12.00;76.40;;;;;;5036304;28;20453;-67
2022/02/19 12:19:58;;;;;;;1.20;1.10;;;12.10;76.90;;;;;;5036437;28;20678;-66
2022/02/19 12:22:34;;;;;;;1.20;1.00;;;12.50;79.50;;;;;;5037596;28;20540;-66
2022/02/19 12:25:02;;;;;;;1.20;1.07;;;12.90;77.50;;;;;;5040335;28;20950;-67
2022/02/19 12:27:31;;;;;;;1.20;1.00;;;13.30;75.30;;;;;;5040465;28;20891;-66
2022/02/19 12:30:26;;;;;;;1.20;1.00;;;13.80;74.20;;;;;;5022985;28;21037;-66
2022/02/19 12:32:56;;;;;;;1.20;1.20;;;13.90;73.80;;;;;;5018890;28;20885;-66
2022/02/19 12:35:34;;;;;;;1.20;1.10;;;13.80;73.20;;;;;;5020252;28;20466;-66
2022/02/19 12:38:02;;;;;;;2.13;1.13;;;13.80;73.40;;;;;;5042467;28;20460;-67
2022/02/19 12:40:30;;;;;;;1.20;1.20;;;13.10;74.20;;;;;;5038522;28;20519;-66
2022/02/19 12:42:59;;;;;;;1.20;1.00;;;12.90;73.90;;;;;;5034990;28;20570;-66
2022/02/19 12:45:27;;;;;;;1.20;1.00;;;13.00;74.70;;;;;;5040191;28;20455;-67
2022/02/19 12:47:54;;;;;;;1.40;1.37;;;12.30;73.80;;;;;;5039879;28;20535;-66
2022/02/19 12:50:23;;;;;;;1.20;1.00;;;12.20;75.60;;;;;;5043688;28;20465;-66
2022/02/19 12:52:51;;;;;;;4.70;1.57;;;11.70;76.20;;;;;;5041120;28;20489;-66
2022/02/19 12:55:20;;;;;;;1.20;1.00;;;11.40;76.00;;;;;;5041866;28;20498;-66
2022/02/19 12:57:50;;;;;;;1.20;1.00;;;11.60;76.20;;;;;;5039058;28;20462;-66
2022/02/19 13:00:20;;;;;;;1.60;1.17;;;12.20;75.90;;;;;;5028532;28;20489;-67
2022/02/19 13:02:55;;;;;;;1.20;1.00;;;12.80;74.10;;;;;;5040017;28;20494;-67
2022/02/19 13:05:22;;;;;;;1.30;1.23;;;13.30;72.00;;;;;;5033172;28;20457;-67
2022/02/19 13:07:51;;;;;;;1.20;1.00;;;13.80;71.90;;;;;;5038942;28;20574;-66
2022/02/19 13:10:21;;;;;;;1.20;1.00;;;13.40;70.00;;;;;;5039189;28;20504;-66